createdAt,value
2019-02-09T00:00:58.305Z,5.20
2019-02-09T00:06:02.071Z,5.20
2019-02-09T00:11:06.814Z,5.30
2019-02-09T00:16:10.698Z,5.20
2019-02-09T00:21:14.503Z,5.20
2019-02-09T00:26:18.470Z,5.30
2019-02-09T00:31:22.567Z,5.30
2019-02-09T00:36:26.329Z,5.30
2019-02-09T00:41:30.368Z,5.30
2019-02-09T00:46:34.218Z,5.30
2019-02-09T00:51:39.913Z,5.30
2019-02-09T00:56:43.848Z,7.20
2019-02-09T01:01:47.922Z,5.20
2019-02-09T01:06:52.111Z,5.20
2019-02-09T01:11:56.049Z,5.20
2019-02-09T01:17:00.275Z,5.20
2019-02-09T01:22:04.515Z,5.10
2019-02-09T01:27:08.479Z,5.10
2019-02-09T01:32:12.263Z,5.10
2019-02-09T01:37:16.030Z,5.10
2019-02-09T01:42:20.159Z,5.20
2019-02-09T01:47:24.374Z,5.20
2019-02-09T01:52:28.633Z,5.20
2019-02-09T01:57:35.488Z,5.10
2019-02-09T02:02:39.353Z,5.10
2019-02-09T02:07:43.154Z,5.10
2019-02-09T02:12:46.935Z,5.10
2019-02-09T02:17:51.121Z,5.10
2019-02-09T02:22:55.029Z,5.00
2019-02-09T02:27:58.873Z,5.00
2019-02-09T02:33:02.704Z,4.90
2019-02-09T02:38:07.002Z,4.80
2019-02-09T02:43:11.130Z,4.80
2019-02-09T02:48:14.908Z,4.90
2019-02-09T02:53:18.735Z,4.90
2019-02-09T02:58:22.438Z,4.90
2019-02-09T03:03:26.673Z,4.90
2019-02-09T03:08:31.502Z,4.90
2019-02-09T03:13:35.432Z,4.90
2019-02-09T03:18:39.258Z,4.90
2019-02-09T03:23:43.355Z,4.90
2019-02-09T03:28:47.447Z,4.80
2019-02-09T03:33:51.637Z,4.80
2019-02-09T03:38:55.349Z,4.70
2019-02-09T03:43:59.566Z,4.70
2019-02-09T03:49:03.338Z,4.70
2019-02-09T03:54:07.211Z,4.70
2019-02-09T03:59:11.164Z,4.70
2019-02-09T04:04:15.381Z,4.70
2019-02-09T04:09:19.132Z,4.80
2019-02-09T04:14:22.897Z,4.90
2019-02-09T04:19:27.257Z,4.90
2019-02-09T04:24:31.387Z,5.00
2019-02-09T04:29:35.637Z,5.00
2019-02-09T04:34:39.407Z,5.10
2019-02-09T04:39:43.460Z,5.10
2019-02-09T04:44:47.714Z,5.10
2019-02-09T04:49:51.566Z,5.20
2019-02-09T04:54:55.723Z,5.20
2019-02-09T04:59:59.627Z,5.20
2019-02-09T05:05:04.011Z,5.30
2019-02-09T05:10:09.968Z,5.30
2019-02-09T05:15:15.194Z,5.20
2019-02-09T05:20:24.672Z,5.30
2019-02-09T05:25:38.766Z,5.30
2019-02-09T05:30:42.642Z,5.30
2019-02-09T05:35:46.595Z,5.30
2019-02-09T05:40:50.378Z,5.30
2019-02-09T05:45:54.164Z,5.10
2019-02-09T05:50:58.656Z,5.00
2019-02-09T05:56:02.499Z,4.80
2019-02-09T06:01:07.204Z,4.80
2019-02-09T06:06:11.635Z,4.70
2019-02-09T06:11:15.480Z,4.60
2019-02-09T06:16:19.507Z,4.60
2019-02-09T06:21:26.348Z,4.50
2019-02-09T06:26:30.225Z,4.50
2019-02-09T06:31:40.710Z,4.50
2019-02-09T06:36:51.712Z,4.50
2019-02-09T06:41:56.387Z,4.50
2019-02-09T06:47:00.816Z,4.60
2019-02-09T06:52:07.762Z,4.70
2019-02-09T06:57:11.804Z,4.80
2019-02-09T07:02:15.901Z,4.80
2019-02-09T07:07:23.678Z,4.90
2019-02-09T07:12:29.363Z,4.90
2019-02-09T07:17:33.668Z,4.80
2019-02-09T07:22:37.560Z,4.60
2019-02-09T07:27:41.765Z,4.60
2019-02-09T07:32:45.680Z,4.60
2019-02-09T07:37:49.920Z,4.50
2019-02-09T07:42:53.851Z,4.50
2019-02-09T07:47:57.796Z,4.60
2019-02-09T07:53:02.135Z,4.50
2019-02-09T07:58:06.134Z,4.50
2019-02-09T08:03:10.339Z,4.60
2019-02-09T08:08:14.074Z,4.60
2019-02-09T08:13:17.906Z,4.60
2019-02-09T08:18:21.869Z,4.60
2019-02-09T08:23:25.864Z,4.60
2019-02-09T08:28:31.419Z,4.60
2019-02-09T08:33:35.299Z,4.60
2019-02-09T08:38:39.068Z,4.60
2019-02-09T08:43:42.901Z,4.70
2019-02-09T08:48:46.777Z,4.70
2019-02-09T08:53:50.521Z,5.00
2019-02-09T08:58:54.570Z,5.20
2019-02-09T09:03:58.664Z,5.30
2019-02-09T09:09:02.600Z,5.60
2019-02-09T09:14:11.261Z,5.80
2019-02-09T09:19:16.490Z,5.90
2019-02-09T09:24:23.784Z,5.80
2019-02-09T09:29:28.295Z,6.00
2019-02-09T09:34:32.319Z,6.10
2019-02-09T09:39:37.235Z,6.30
2019-02-09T09:44:41.539Z,6.20
2019-02-09T09:49:48.619Z,6.10
2019-02-09T09:54:53.268Z,6.40
2019-02-09T09:59:58.664Z,6.80
2019-02-09T10:05:03.760Z,6.80
2019-02-09T10:10:09.651Z,6.80
2019-02-09T10:15:15.912Z,6.70
2019-02-09T10:20:22.148Z,6.60
2019-02-09T10:25:26.569Z,6.60
2019-02-09T10:30:30.702Z,6.70
2019-02-09T10:35:35.756Z,6.90
2019-02-09T10:40:41.964Z,6.90
2019-02-09T10:45:54.501Z,7.10
2019-02-09T10:50:58.580Z,7.30
2019-02-09T10:56:02.606Z,7.70
2019-02-09T11:01:17.659Z,8.30
2019-02-09T11:06:23.530Z,8.70
2019-02-09T11:11:28.840Z,9.10
2019-02-09T11:16:38.230Z,9.50
2019-02-09T11:21:45.957Z,9.70
2019-02-09T11:26:49.884Z,9.80
2019-02-09T11:31:59.439Z,9.60
2019-02-09T11:37:06.467Z,9.40
2019-02-09T11:42:10.828Z,9.20
2019-02-09T11:47:15.379Z,9.40
2019-02-09T11:52:22.200Z,9.40
2019-02-09T11:57:26.279Z,9.60
2019-02-09T12:02:35.520Z,9.60
2019-02-09T12:07:40.411Z,9.80
2019-02-09T12:12:48.480Z,10.00
2019-02-09T12:17:53.194Z,9.70
2019-02-09T12:23:00.933Z,9.30
2019-02-09T12:28:06.709Z,9.10
2019-02-09T12:33:23.023Z,9.10
2019-02-09T12:38:26.200Z,8.80
2019-02-09T12:43:30.497Z,8.30
2019-02-09T12:48:34.401Z,8.00
2019-02-09T12:53:38.444Z,8.10
2019-02-09T12:58:42.761Z,8.20
2019-02-09T13:03:53.094Z,8.20
2019-02-09T13:08:57.185Z,8.40
2019-02-09T13:14:01.356Z,8.80
2019-02-09T13:19:06.313Z,9.00
2019-02-09T13:24:10.788Z,9.30
2019-02-09T13:29:27.715Z,9.20
2019-02-09T13:34:31.518Z,9.40
2019-02-09T13:39:35.627Z,10.20
2019-02-09T13:44:39.584Z,10.40
2019-02-09T13:49:54.355Z,10.60
2019-02-09T13:55:00.699Z,10.60
2019-02-09T14:00:23.322Z,10.60
2019-02-09T14:05:27.713Z,10.30
2019-02-09T14:10:31.577Z,10.10
2019-02-09T14:15:35.710Z,9.90
2019-02-09T14:20:42.328Z,9.80
2019-02-09T14:25:46.229Z,9.70
2019-02-09T14:30:50.200Z,9.60
2019-02-09T14:35:54.277Z,9.50
2019-02-09T14:40:58.107Z,9.40
2019-02-09T14:46:02.016Z,9.00
2019-02-09T14:51:06.460Z,8.00
2019-02-09T14:56:10.379Z,7.50
2019-02-09T15:01:14.304Z,7.20
2019-02-09T15:06:21.562Z,7.00
2019-02-09T15:11:25.611Z,6.90
2019-02-09T15:16:45.027Z,6.70
2019-02-09T15:21:51.776Z,6.50
2019-02-09T15:26:56.227Z,6.40
2019-02-09T15:32:03.769Z,6.40
2019-02-09T15:37:07.772Z,6.40
2019-02-09T15:42:11.677Z,6.40
2019-02-09T15:47:15.715Z,6.30
2019-02-09T15:52:24.129Z,6.20
2019-02-09T15:57:31.491Z,6.10
2019-02-09T16:02:36.167Z,6.00
2019-02-09T16:07:40.367Z,5.90
2019-02-09T16:12:44.243Z,5.80
2019-02-09T16:17:48.064Z,6.00
2019-02-09T16:22:52.066Z,6.30
2019-02-09T16:27:55.930Z,6.60
2019-02-09T16:33:09.355Z,6.80
2019-02-09T16:38:14.103Z,6.90
2019-02-09T16:43:18.055Z,6.90
2019-02-09T16:48:21.845Z,6.90
2019-02-09T16:53:25.778Z,7.00
2019-02-09T16:58:29.753Z,6.90
2019-02-09T17:03:33.599Z,6.90
2019-02-09T17:08:37.660Z,6.90
2019-02-09T17:13:41.452Z,6.90
2019-02-09T17:18:46.528Z,7.00
2019-02-09T17:23:50.459Z,7.10
2019-02-09T17:28:54.229Z,7.10
2019-02-09T17:33:58.296Z,7.20
2019-02-09T17:39:02.375Z,7.30
2019-02-09T17:44:06.420Z,7.40
2019-02-09T17:49:18.125Z,7.40
2019-02-09T17:54:22.172Z,7.50
2019-02-09T17:59:26.077Z,7.70
2019-02-09T18:04:30.025Z,7.70
2019-02-09T18:09:39.649Z,7.50
2019-02-09T18:14:43.419Z,7.00
2019-02-09T18:24:51.195Z,5.90
2019-02-09T18:29:55.246Z,5.80
2019-02-09T18:34:59.123Z,5.60
2019-02-09T18:40:03.853Z,5.50
2019-02-09T18:45:09.064Z,5.40
2019-02-09T18:50:15.576Z,5.20
2019-02-09T18:55:20.972Z,5.10
2019-02-09T19:00:33.412Z,5.00
2019-02-09T19:05:37.423Z,4.20
2019-02-09T19:10:41.866Z,4.90
2019-02-09T19:15:46.247Z,4.90
2019-02-09T19:20:53.150Z,4.90
2019-02-09T19:25:57.640Z,4.90
2019-02-09T19:31:04.943Z,4.90
2019-02-09T19:36:11.839Z,5.00
2019-02-09T19:41:15.602Z,5.00
2019-02-09T19:46:19.512Z,5.00
2019-02-09T19:51:23.415Z,5.00
2019-02-09T19:56:27.297Z,5.10
2019-02-09T20:01:31.543Z,5.20
2019-02-09T20:06:35.310Z,5.20
2019-02-09T20:11:39.227Z,5.30
2019-02-09T20:16:44.464Z,5.40
2019-02-09T20:21:48.624Z,5.50
2019-02-09T20:26:53.098Z,5.50
2019-02-09T20:31:57.424Z,5.60
2019-02-09T20:37:04.551Z,5.60
2019-02-09T20:42:08.920Z,5.70
2019-02-09T20:47:17.559Z,5.70
2019-02-09T20:52:21.895Z,5.80
2019-02-09T20:57:26.160Z,5.90
2019-02-09T21:02:30.512Z,5.90
2019-02-09T21:07:34.869Z,5.90
2019-02-09T21:12:39.599Z,5.80
2019-02-09T21:17:43.895Z,5.90
2019-02-09T21:22:54.843Z,5.80
2019-02-09T21:27:58.989Z,5.70
2019-02-09T21:33:15.035Z,5.80
2019-02-09T21:38:19.203Z,5.90
2019-02-09T21:43:23.688Z,6.00
2019-02-09T21:48:28.075Z,6.00
2019-02-09T21:53:32.082Z,6.00
2019-02-09T21:58:36.166Z,5.90
2019-02-09T22:03:43.677Z,6.00
2019-02-09T22:08:47.577Z,6.00
2019-02-09T22:13:54.917Z,6.10
2019-02-09T22:19:04.445Z,6.10
2019-02-09T22:24:08.808Z,6.10
2019-02-09T22:29:13.244Z,6.10
2019-02-09T22:34:17.323Z,6.20
2019-02-09T22:39:24.732Z,6.20
2019-02-09T22:44:31.759Z,6.20
2019-02-09T22:49:35.673Z,6.20
2019-02-09T22:54:39.888Z,6.20
2019-02-09T22:59:43.867Z,6.20
2019-02-09T23:05:04.034Z,6.10
2019-02-09T23:10:12.806Z,6.20
2019-02-09T23:15:21.025Z,6.10
2019-02-09T23:20:29.823Z,6.10
2019-02-09T23:25:33.811Z,6.10
2019-02-09T23:30:38.343Z,6.10
2019-02-09T23:35:45.881Z,6.10
2019-02-09T23:40:54.326Z,6.20
2019-02-09T23:45:58.533Z,6.10
2019-02-09T23:51:04.576Z,6.10
2019-02-09T23:56:20.134Z,6.10
